Time;durP1;ratioP1;P1;durP2;ratioP2;P2;SDS_P1;SDS_P2;PMS_P1;PMS_P2;Temp;Humidity;BMP_temperature;BMP_pressure;BME280_temperature;BME280_humidity;BME280_pressure;Samples;Min_cycle;Max_cycle;Signal;HPM_P1;HPM_P2
2021/09/12 00:00:26;;;;;;;20.15;15.93;;;;;;;17.33;82.01;100589.69;1738543;82;21534;-79
2021/09/12 00:02:54;;;;;;;17.12;15.32;;;;;;;17.31;82.03;100589.88;1737688;82;21062;-78
2021/09/12 00:05:20;;;;;;;19.75;16.12;;;;;;;17.32;82.07;100595.59;1739607;81;21510;-78
2021/09/12 00:07:46;;;;;;;18.67;16.23;;;;;;;17.29;82.11;100591.98;1746283;81;21467;-78
2021/09/12 00:10:13;;;;;;;18.12;15.48;;;;;;;17.30;82.11;100590.11;1755403;81;21015;-78
2021/09/12 00:12:39;;;;;;;19.98;16.30;;;;;;;17.29;82.14;100583.89;1768782;80;21034;-78
2021/09/12 00:15:07;;;;;;;18.17;15.70;;;;;;;17.30;82.17;100583.38;1755373;81;21144;-78
2021/09/12 00:17:33;;;;;;;17.42;15.53;;;;;;;17.32;82.19;100580.77;1768661;80;20940;-78
2021/09/12 00:19:59;;;;;;;18.07;16.17;;;;;;;17.29;82.22;100582.53;1754961;81;20995;-78
2021/09/12 00:22:25;;;;;;;21.20;16.52;;;;;;;17.28;82.24;100583.56;1744332;80;21141;-78
2021/09/12 00:24:51;;;;;;;19.42;16.37;;;;;;;17.29;82.25;100580.36;1738429;82;21015;-78
2021/09/12 00:27:17;;;;;;;18.65;16.60;;;;;;;17.28;82.30;100580.88;1738420;82;21135;-77
2021/09/12 00:29:43;;;;;;;17.73;15.28;;;;;;;17.27;82.30;100584.62;1738370;82;20995;-78
2021/09/12 00:32:09;;;;;;;17.75;15.85;;;;;;;17.25;82.30;100589.37;1738505;82;20903;-78
2021/09/12 00:34:35;;;;;;;20.17;16.80;;;;;;;17.23;82.32;100583.38;1738480;82;21121;-78
2021/09/12 00:37:01;;;;;;;18.05;15.70;;;;;;;17.21;82.35;100589.48;1760503;81;20987;-78
2021/09/12 00:39:29;;;;;;;17.65;15.83;;;;;;;17.21;82.39;100596.22;1740163;81;21110;-78
2021/09/12 00:41:55;;;;;;;19.65;16.67;;;;;;;17.19;82.42;100590.22;1738230;82;21050;-78
2021/09/12 00:44:23;;;;;;;18.50;16.60;;;;;;;17.17;82.43;100584.73;1738551;82;21495;-78
2021/09/12 00:46:51;;;;;;;19.40;16.35;;;;;;;17.14;82.45;100585.96;1725330;83;20995;-78
2021/09/12 00:49:18;;;;;;;20.97;17.60;;;;;;;17.11;82.46;100589.08;1738332;81;21014;-78
2021/09/12 00:51:44;;;;;;;27.15;20.60;;;;;;;17.10;82.49;100590.11;1753737;81;21197;-78
2021/09/12 00:54:10;;;;;;;22.82;19.90;;;;;;;17.08;82.50;100588.15;1768599;81;21003;-78
2021/09/12 00:56:40;;;;;;;22.48;18.10;;;;;;;17.08;82.51;100589.50;1768982;80;21054;-78
2021/09/12 00:59:12;;;;;;;22.13;17.67;;;;;;;17.07;82.53;100580.25;1755286;81;21006;-78
2021/09/12 01:01:41;;;;;;;21.80;18.77;;;;;;;17.06;82.54;100588.89;1739460;82;21051;-78
2021/09/12 01:04:08;;;;;;;22.40;18.95;;;;;;;17.04;82.57;100587.41;1725424;83;21869;-78
2021/09/12 01:06:34;;;;;;;20.82;18.50;;;;;;;17.01;82.59;100587.83;1723373;82;20991;-78
2021/09/12 01:09:00;;;;;;;19.17;17.10;;;;;;;16.98;82.60;100587.22;1723391;83;20983;-78
2021/09/12 01:11:26;;;;;;;21.80;18.90;;;;;;;16.98;82.63;100591.78;1709785;84;21074;-78
2021/09/12 01:13:52;;;;;;;23.62;19.62;;;;;;;16.96;82.67;100586.58;1761694;81;20987;-78
2021/09/12 01:16:19;;;;;;;20.40;17.70;;;;;;;16.95;82.69;100584.11;1761492;81;21046;-78
2021/09/12 01:18:46;;;;;;;22.00;19.70;;;;;;;16.95;82.70;100592.20;1741739;81;21511;-78
2021/09/12 01:21:15;;;;;;;22.07;19.37;;;;;;;16.95;82.72;100590.84;1742470;81;20991;-78
2021/09/12 01:23:41;;;;;;;22.13;19.10;;;;;;;16.94;82.77;100593.22;1692660;83;20979;-78
2021/09/12 01:26:07;;;;;;;23.38;19.62;;;;;;;16.94;82.77;100590.53;1759626;81;21004;-78
2021/09/12 01:28:36;;;;;;;22.52;19.60;;;;;;;16.91;82.79;100588.25;1725557;83;21154;-78
2021/09/12 01:31:02;;;;;;;21.73;19.32;;;;;;;16.91;82.84;100590.43;1756747;81;21000;-78
2021/09/12 01:33:28;;;;;;;21.40;19.05;;;;;;;16.90;82.86;100590.63;1756673;81;21441;-78
2021/09/12 01:35:54;;;;;;;21.95;18.90;;;;;;;16.87;82.89;100595.91;1718291;83;21049;-78
2021/09/12 01:38:20;;;;;;;23.15;20.68;;;;;;;16.84;82.89;100596.84;1729264;83;21042;-78
2021/09/12 01:40:46;;;;;;;24.12;19.48;;;;;;;16.80;82.92;100595.59;1726717;83;21150;-78
2021/09/12 01:43:12;;;;;;;25.23;22.25;;;;;;;16.76;82.93;100594.34;1696268;84;21073;-78
2021/09/12 01:45:38;;;;;;;26.27;21.65;;;;;;;16.72;82.97;100591.73;1726979;82;21086;-78
2021/09/12 01:48:05;;;;;;;23.95;21.12;;;;;;;16.69;82.98;100594.84;1694819;84;20975;-78
2021/09/12 01:50:31;;;;;;;23.27;20.48;;;;;;;16.65;82.99;100592.25;1726637;82;20988;-78
2021/09/12 01:52:57;;;;;;;24.77;20.20;;;;;;;16.60;83.01;100588.84;1642904;84;21152;-78
2021/09/12 01:55:23;;;;;;;24.63;21.95;;;;;;;16.55;83.03;100590.44;1726594;83;20987;-78
2021/09/12 01:57:49;;;;;;;27.87;20.72;;;;;;;16.50;83.04;100594.56;1726735;82;21066;-78
2021/09/12 02:00:16;;;;;;;24.67;20.15;;;;;;;16.46;83.06;100593.34;1696622;84;20911;-78
2021/09/12 02:02:42;;;;;;;26.97;21.33;;;;;;;16.42;83.06;100596.13;1739464;81;21497;-78
2021/09/12 02:05:09;;;;;;;24.27;20.95;;;;;;;16.37;83.06;100593.19;1756942;81;21472;-78
2021/09/12 02:07:35;;;;;;;29.30;21.60;;;;;;;16.32;83.09;100595.67;1716878;83;20999;-78
2021/09/12 02:10:01;;;;;;;23.10;20.27;;;;;;;16.29;83.10;100596.05;1745226;81;20929;-78
2021/09/12 02:12:27;;;;;;;25.23;21.40;;;;;;;16.27;83.12;100599.48;1759478;80;20976;-78
2021/09/12 02:14:53;;;;;;;29.35;22.82;;;;;;;16.25;83.13;100595.34;1725779;83;21085;-78
2021/09/12 02:17:19;;;;;;;28.40;21.90;;;;;;;16.23;83.15;100594.69;1757067;81;21135;-78
2021/09/12 02:19:46;;;;;;;25.85;21.17;;;;;;;16.20;83.15;100598.62;1764529;81;21423;-78
2021/09/12 02:22:12;;;;;;;28.80;21.80;;;;;;;16.17;83.16;100593.65;1764812;81;21464;-78
2021/09/12 02:24:38;;;;;;;24.60;21.62;;;;;;;16.16;83.22;100599.22;1726564;82;21017;-78
2021/09/12 02:27:04;;;;;;;25.10;21.50;;;;;;;16.15;83.24;100597.04;1762543;81;21381;-78
2021/09/12 02:29:30;;;;;;;24.07;21.57;;;;;;;16.14;83.27;100591.37;1733455;82;21119;-78
2021/09/12 02:31:56;;;;;;;25.45;22.70;;;;;;;16.16;83.26;100599.22;1762390;80;21046;-78
2021/09/12 02:34:22;;;;;;;27.52;22.13;;;;;;;16.14;83.30;100592.71;1762305;81;20915;-78
2021/09/12 02:36:48;;;;;;;27.13;21.57;;;;;;;16.16;83.34;100593.84;1762209;81;20845;-78
2021/09/12 02:39:14;;;;;;;26.15;21.75;;;;;;;16.14;83.35;100590.53;1755392;81;21351;-78
2021/09/12 02:41:39;;;;;;;31.27;22.05;;;;;;;16.13;83.41;100587.00;1762542;81;21152;-78
2021/09/12 02:44:05;;;;;;;25.85;22.05;;;;;;;16.14;83.45;100585.98;1761936;81;21043;-78
2021/09/12 02:46:32;;;;;;;24.35;21.75;;;;;;;16.14;83.45;100588.67;1733635;82;20978;-78
2021/09/12 02:48:58;;;;;;;25.45;22.75;;;;;;;16.13;83.47;100586.17;1762427;81;21492;-78
2021/09/12 02:51:24;;;;;;;25.40;22.22;;;;;;;16.12;83.53;100590.72;1733437;82;21511;-78
2021/09/12 02:53:50;;;;;;;29.02;22.77;;;;;;;16.12;83.58;100590.72;1748958;81;21817;-78
2021/09/12 02:56:16;;;;;;;25.20;22.50;;;;;;;16.12;83.60;100596.09;1761818;81;20983;-78
2021/09/12 02:58:42;;;;;;;25.65;21.52;;;;;;;16.13;83.62;100600.45;1733533;81;20989;-78
2021/09/12 03:01:08;;;;;;;27.50;21.70;;;;;;;16.15;83.67;100594.34;1762320;81;21006;-78
2021/09/12 03:03:34;;;;;;;25.82;22.70;;;;;;;16.16;83.70;100591.98;1762125;81;20988;-78
2021/09/12 03:06:00;;;;;;;27.05;22.17;;;;;;;16.16;83.73;100590.64;1733747;81;21008;-78
2021/09/12 03:08:26;;;;;;;29.18;24.77;;;;;;;16.19;83.77;100594.27;1742990;81;20984;-78
2021/09/12 03:10:53;;;;;;;27.07;22.67;;;;;;;16.23;83.79;100598.22;1757348;81;21082;-78
2021/09/12 03:13:19;;;;;;;28.45;22.75;;;;;;;16.25;83.81;100596.17;1762190;81;21309;-78
2021/09/12 03:15:45;;;;;;;28.32;23.00;;;;;;;16.27;83.85;100595.95;1762264;81;20979;-78
2021/09/12 03:18:12;;;;;;;25.45;21.40;;;;;;;16.29;83.87;100597.41;1733503;82;21138;-78
2021/09/12 03:20:38;;;;;;;24.47;21.40;;;;;;;16.31;83.89;100604.77;1766738;81;20992;-78
2021/09/12 03:23:04;;;;;;;23.83;21.33;;;;;;;16.32;83.93;100599.72;1733695;82;20999;-78
2021/09/12 03:25:31;;;;;;;31.20;22.52;;;;;;;16.36;83.96;100603.63;1743959;80;21535;-78
2021/09/12 03:27:57;;;;;;;24.95;22.17;;;;;;;16.41;84.00;100602.52;1704396;84;21070;-78
2021/09/12 03:30:23;;;;;;;25.77;22.30;;;;;;;16.45;84.02;100594.36;1736876;82;21145;-79
2021/09/12 03:32:49;;;;;;;25.72;20.90;;;;;;;16.49;84.02;100602.34;1704012;84;21097;-78
2021/09/12 03:35:16;;;;;;;25.12;21.80;;;;;;;16.54;84.05;100604.95;1736608;82;21038;-78
2021/09/12 03:37:42;;;;;;;25.27;21.00;;;;;;;16.56;84.06;100598.87;1695493;84;21010;-78
2021/09/12 03:40:08;;;;;;;26.75;21.73;;;;;;;16.58;84.10;100603.52;1737100;82;21007;-78
2021/09/12 03:42:34;;;;;;;25.32;20.50;;;;;;;16.57;84.11;100603.23;1704267;84;21881;-78
2021/09/12 03:45:00;;;;;;;24.30;20.88;;;;;;;16.58;84.18;100604.86;1737232;82;21049;-78
2021/09/12 03:47:26;;;;;;;24.27;21.40;;;;;;;16.58;84.21;100600.83;1703914;84;20986;-78
2021/09/12 03:49:52;;;;;;;29.30;24.47;;;;;;;16.59;84.25;100603.84;1736922;82;21026;-78
2021/09/12 03:52:18;;;;;;;29.30;22.90;;;;;;;16.60;84.27;100601.47;1704279;84;20998;-78
2021/09/12 03:54:44;;;;;;;25.62;22.48;;;;;;;16.60;84.31;100593.39;1767591;80;21148;-78
2021/09/12 03:57:10;;;;;;;23.73;20.77;;;;;;;16.60;84.35;100597.43;1704354;84;21042;-78
2021/09/12 03:59:36;;;;;;;26.15;20.48;;;;;;;16.60;84.36;100594.22;1736891;82;21035;-78
2021/09/12 04:02:02;;;;;;;23.02;19.90;;;;;;;16.62;84.39;100595.34;1704524;84;20971;-78
2021/09/12 04:04:29;;;;;;;23.40;19.70;;;;;;;16.63;84.40;100595.67;1704174;84;21127;-78
2021/09/12 04:06:55;;;;;;;23.25;20.75;;;;;;;16.64;84.43;100591.95;1737139;82;21132;-78
2021/09/12 04:09:21;;;;;;;23.02;20.20;;;;;;;16.65;84.44;100594.42;1704355;84;21014;-78
2021/09/12 04:11:47;;;;;;;24.63;20.52;;;;;;;16.69;84.47;100592.16;1730245;82;20935;-78
2021/09/12 04:14:13;;;;;;;24.27;20.17;;;;;;;16.68;84.48;100597.22;1704363;84;20981;-78
2021/09/12 04:16:39;;;;;;;26.27;21.97;;;;;;;16.68;84.49;100596.70;1737111;82;21014;-78
2021/09/12 04:19:05;;;;;;;32.03;21.50;;;;;;;16.69;84.51;100605.62;1747931;81;21110;-78
2021/09/12 04:21:31;;;;;;;21.85;19.52;;;;;;;16.68;84.54;100603.95;1761455;81;20998;-78
2021/09/12 04:23:57;;;;;;;22.20;19.17;;;;;;;16.65;84.56;100601.67;1725657;83;21004;-78
2021/09/12 04:26:23;;;;;;;23.18;20.68;;;;;;;16.60;84.57;100602.30;1711742;82;21050;-78
2021/09/12 04:28:49;;;;;;;27.65;21.15;;;;;;;16.57;84.59;100601.88;1742561;82;21030;-78
2021/09/12 04:31:15;;;;;;;23.92;20.35;;;;;;;16.53;84.62;100600.59;1742584;82;21052;-78
2021/09/12 04:33:41;;;;;;;23.07;20.57;;;;;;;16.48;84.63;100602.03;1769337;81;21042;-78
2021/09/12 04:36:07;;;;;;;22.77;19.75;;;;;;;16.44;84.65;100604.81;1756357;81;21042;-78
2021/09/12 04:38:33;;;;;;;24.20;20.25;;;;;;;16.42;84.69;100605.54;1790910;80;20991;-78
2021/09/12 04:41:00;;;;;;;25.35;20.37;;;;;;;16.38;84.72;100600.75;1756075;81;20982;-78
2021/09/12 04:43:26;;;;;;;23.15;20.27;;;;;;;16.35;84.73;100611.42;1658963;84;21547;-78
2021/09/12 04:45:52;;;;;;;22.50;18.67;;;;;;;16.35;84.78;100608.73;1710041;84;21539;-78
2021/09/12 04:48:18;;;;;;;24.67;19.25;;;;;;;16.32;84.80;100605.09;1709986;84;21578;-78
2021/09/12 04:50:44;;;;;;;23.77;19.25;;;;;;;16.31;84.79;100605.28;1709887;84;20998;-78
2021/09/12 04:53:10;;;;;;;24.82;20.57;;;;;;;16.29;84.80;100608.16;1710085;84;21019;-78
2021/09/12 04:55:36;;;;;;;27.32;20.80;;;;;;;16.29;84.83;100610.05;1710126;83;21128;-78
2021/09/12 04:58:02;;;;;;;23.70;19.32;;;;;;;16.27;84.85;100613.45;1710559;82;20971;-78
2021/09/12 05:00:28;;;;;;;22.93;19.50;;;;;;;16.26;84.89;100608.58;1712094;82;21074;-78
2021/09/12 05:02:54;;;;;;;22.15;19.85;;;;;;;16.26;84.89;100619.34;1738964;81;21023;-78
2021/09/12 05:05:20;;;;;;;23.57;19.02;;;;;;;16.26;84.92;100615.30;1740276;81;21026;-78
2021/09/12 05:07:46;;;;;;;21.75;19.40;;;;;;;16.28;84.95;100616.46;1709272;83;21555;-78
2021/09/12 05:10:12;;;;;;;25.48;20.95;;;;;;;16.30;84.96;100617.91;1712121;82;21472;-78
2021/09/12 05:12:38;;;;;;;23.87;20.10;;;;;;;16.34;84.98;100621.03;1715705;82;21086;-79
2021/09/12 05:15:06;;;;;;;24.27;21.23;;;;;;;16.38;85.00;100619.09;1761339;81;21090;-79
2021/09/12 05:17:32;;;;;;;25.55;20.37;;;;;;;16.43;85.03;100620.64;1772150;80;21019;-79
2021/09/12 05:19:58;;;;;;;24.95;21.68;;;;;;;16.52;85.07;100623.98;1784565;80;21048;-79
2021/09/12 05:22:24;;;;;;;24.05;20.48;;;;;;;16.67;85.07;100623.86;1764598;80;20995;-79
2021/09/12 05:24:50;;;;;;;26.10;21.20;;;;;;;16.85;85.09;100629.49;1784078;80;22126;-79
2021/09/12 05:27:16;;;;;;;23.87;20.37;;;;;;;16.86;85.07;100623.05;1739646;81;21012;-78
2021/09/12 05:29:42;;;;;;;26.48;21.93;;;;;;;16.86;85.06;100628.44;1750108;81;21041;-78
2021/09/12 05:32:08;;;;;;;26.12;22.52;;;;;;;16.84;85.05;100622.44;1752223;81;21143;-78
2021/09/12 05:34:34;;;;;;;30.32;22.60;;;;;;;16.84;85.08;100627.83;1752189;81;21022;-78
2021/09/12 05:37:00;;;;;;;29.40;22.35;;;;;;;16.83;85.09;100626.16;1750952;81;21027;-78
2021/09/12 05:39:27;;;;;;;25.08;22.30;;;;;;;16.80;85.11;100624.70;1751022;81;21014;-79
2021/09/12 05:41:53;;;;;;;26.00;22.52;;;;;;;16.84;85.15;100631.86;1729390;81;21196;-79
2021/09/12 05:44:19;;;;;;;28.73;23.67;;;;;;;16.92;85.17;100627.64;1753128;81;21434;-79
2021/09/12 05:46:47;;;;;;;28.07;23.73;;;;;;;16.98;85.18;100632.20;1751366;81;21053;-79
2021/09/12 05:49:13;;;;;;;27.82;23.92;;;;;;;17.02;85.19;100628.06;1751716;81;21003;-79
2021/09/12 05:51:39;;;;;;;27.32;22.70;;;;;;;17.09;85.17;100636.14;1745556;80;21078;-79
2021/09/12 05:54:05;;;;;;;27.80;23.83;;;;;;;17.17;85.20;100634.05;1752600;80;21129;-79
2021/09/12 05:56:31;;;;;;;27.67;23.45;;;;;;;17.23;85.19;100636.45;1739710;81;21112;-79
2021/09/12 05:58:57;;;;;;;28.73;23.45;;;;;;;17.28;85.17;100638.83;1726927;82;21391;-78
2021/09/12 06:01:23;;;;;;;27.30;22.87;;;;;;;17.31;85.16;100643.80;1725066;82;21030;-79
2021/09/12 06:03:49;;;;;;;28.55;23.42;;;;;;;17.28;85.13;100645.57;1753425;81;21055;-79
2021/09/12 06:06:15;;;;;;;27.62;23.02;;;;;;;17.27;85.14;100645.28;1741342;81;21063;-79
2021/09/12 06:08:41;;;;;;;25.37;22.30;;;;;;;17.35;85.12;100647.75;1723390;82;21173;-80
2021/09/12 06:11:10;;;;;;;29.02;25.50;;;;;;;17.43;85.08;100645.36;1775520;80;21015;-79
2021/09/12 06:13:35;;;;;;;30.90;25.00;;;;;;;17.52;85.00;100644.64;1774221;80;20998;-79
2021/09/12 06:16:01;;;;;;;29.72;25.35;;;;;;;17.59;84.97;100640.11;1772450;80;21094;-79
2021/09/12 06:18:27;;;;;;;41.00;28.25;;;;;;;17.67;84.94;100647.44;1773013;80;21046;-79
2021/09/12 06:20:53;;;;;;;41.88;30.12;;;;;;;17.69;84.85;100649.43;1757598;80;21119;-79
2021/09/12 06:23:19;;;;;;;37.65;27.87;;;;;;;17.83;84.84;100651.58;1738241;81;21034;-78
2021/09/12 06:25:45;;;;;;;27.93;22.85;;;;;;;18.15;84.77;100657.41;1743813;81;21004;-78
2021/09/12 06:28:11;;;;;;;23.42;20.72;;;;;;;18.40;84.65;100654.27;1734479;81;21078;-78
2021/09/12 06:30:37;;;;;;;23.20;20.00;;;;;;;18.53;84.54;100659.36;1715537;83;21010;-78
2021/09/12 06:33:03;;;;;;;21.30;19.20;;;;;;;18.64;84.43;100668.13;1730165;81;21823;-78
2021/09/12 06:35:29;;;;;;;20.90;18.65;;;;;;;18.84;84.35;100667.49;1729395;82;20951;-78
2021/09/12 06:37:55;;;;;;;23.32;20.32;;;;;;;19.08;84.20;100672.63;1729260;82;21582;-78
2021/09/12 06:40:23;;;;;;;23.90;21.42;;;;;;;19.25;83.99;100670.53;1729336;82;21026;-78
2021/09/12 06:42:50;;;;;;;22.52;20.20;;;;;;;19.44;83.83;100670.11;1729138;83;21058;-78
2021/09/12 06:45:16;;;;;;;26.95;21.65;;;;;;;19.54;83.60;100665.55;1751159;81;22174;-78
2021/09/12 06:47:42;;;;;;;23.18;19.37;;;;;;;19.74;83.43;100659.41;1726317;82;21457;-78
2021/09/12 06:50:09;;;;;;;23.25;18.40;;;;;;;20.00;83.20;100660.50;1726844;82;20898;-78
2021/09/12 06:52:35;;;;;;;21.95;18.85;;;;;;;20.12;82.94;100660.07;1696344;84;21443;-78
2021/09/12 06:55:02;;;;;;;21.15;19.02;;;;;;;20.33;82.68;100654.75;1726665;82;21077;-78
2021/09/12 06:57:28;;;;;;;20.97;17.73;;;;;;;20.42;82.43;100655.55;1726484;83;21664;-78
2021/09/12 06:59:54;;;;;;;21.75;17.85;;;;;;;20.44;82.12;100660.20;1726832;81;20907;-78
2021/09/12 07:02:20;;;;;;;18.73;16.93;;;;;;;20.36;81.89;100657.00;1668703;84;21022;-78
2021/09/12 07:04:46;;;;;;;18.42;16.07;;;;;;;20.26;81.61;100660.22;1726165;83;21098;-78
2021/09/12 07:07:12;;;;;;;17.27;15.53;;;;;;;20.37;81.38;100662.17;1726840;82;20944;-79
2021/09/12 07:09:38;;;;;;;20.72;15.98;;;;;;;20.48;81.12;100662.48;1726586;83;21688;-78
2021/09/12 07:12:05;;;;;;;18.15;16.05;;;;;;;20.49;80.77;100664.95;1726685;83;20979;-78
2021/09/12 07:14:31;;;;;;;18.87;15.32;;;;;;;20.65;80.58;100662.98;1742893;81;20987;-78
2021/09/12 07:16:57;;;;;;;14.55;13.05;;;;;;;20.81;80.33;100660.14;1725517;83;21018;-78
2021/09/12 07:19:23;;;;;;;14.65;13.15;;;;;;;20.75;80.04;100665.14;1756673;80;21114;-78
2021/09/12 07:21:50;;;;;;;14.95;13.45;;;;;;;20.78;79.85;100663.31;1756728;81;21817;-78
2021/09/12 07:24:16;;;;;;;15.05;13.48;;;;;;;20.92;79.54;100664.78;1756603;81;21426;-78
2021/09/12 07:26:42;;;;;;;15.85;13.25;;;;;;;21.02;79.28;100660.97;1756369;81;20964;-78
2021/09/12 07:29:08;;;;;;;14.60;12.00;;;;;;;21.12;79.05;100661.79;1742404;81;21012;-79
2021/09/12 07:31:34;;;;;;;13.78;12.37;;;;;;;21.25;78.80;100662.41;1740056;81;20991;-78
2021/09/12 07:34:02;;;;;;;14.35;12.85;;;;;;;21.27;78.47;100658.94;1726484;82;21877;-78
2021/09/12 07:36:29;;;;;;;16.85;12.10;;;;;;;21.35;78.27;100661.33;1726550;83;20917;-78
2021/09/12 07:38:55;;;;;;;12.30;11.00;;;;;;;21.35;77.99;100662.69;1677836;84;21037;-78
2021/09/12 07:41:21;;;;;;;17.65;12.23;;;;;;;21.30;77.69;100665.78;1729091;82;20996;-78
2021/09/12 07:43:47;;;;;;;13.98;11.45;;;;;;;21.30;77.53;100673.39;1726434;82;21059;-78
2021/09/12 07:46:13;;;;;;;13.55;11.50;;;;;;;21.31;77.25;100670.16;1726715;83;21786;-78
2021/09/12 07:48:39;;;;;;;18.07;13.28;;;;;;;21.47;77.05;100667.27;1726316;82;20983;-78
2021/09/12 07:51:06;;;;;;;13.62;12.13;;;;;;;21.55;76.74;100677.79;1737448;81;21084;-78
2021/09/12 07:53:32;;;;;;;14.07;11.28;;;;;;;21.65;76.52;100680.74;1756574;81;20971;-78
2021/09/12 07:55:58;;;;;;;12.03;10.82;;;;;;;21.82;76.33;100678.44;1725496;82;21054;-78
2021/09/12 07:58:24;;;;;;;12.25;10.95;;;;;;;21.65;75.89;100680.74;1756680;80;21992;-78
2021/09/12 08:00:51;;;;;;;12.82;10.35;;;;;;;21.48;75.69;100683.86;1755010;81;20995;-78
2021/09/12 08:03:18;;;;;;;11.60;10.40;;;;;;;21.22;75.57;100684.58;1725624;83;21515;-79
2021/09/12 08:05:44;;;;;;;14.05;11.68;;;;;;;21.17;75.47;100683.11;1725519;83;20987;-78
2021/09/12 08:08:10;;;;;;;13.85;12.33;;;;;;;21.33;75.39;100686.48;1759427;80;20984;-79
2021/09/12 08:10:36;;;;;;;11.78;10.58;;;;;;;21.41;75.14;100690.23;1756524;80;21880;-78
2021/09/12 08:13:02;;;;;;;15.08;10.63;;;;;;;21.69;75.08;100692.79;1754516;81;21011;-78
2021/09/12 08:15:28;;;;;;;13.65;10.23;;;;;;;21.90;74.87;100686.27;1756698;81;20983;-78
2021/09/12 08:17:54;;;;;;;14.53;10.80;;;;;;;22.07;74.63;100689.09;1756767;81;21494;-78
2021/09/12 08:20:20;;;;;;;11.15;9.05;;;;;;;22.18;74.35;100688.25;1770055;80;20928;-78
2021/09/12 08:22:46;;;;;;;14.87;10.23;;;;;;;22.27;74.11;100692.23;1742147;81;21916;-78
2021/09/12 08:25:12;;;;;;;9.95;8.58;;;;;;;22.29;73.83;100691.48;1738172;82;20944;-78
2021/09/12 08:27:38;;;;;;;10.48;8.83;;;;;;;22.40;73.63;100700.67;1738119;82;21003;-78
2021/09/12 08:30:06;;;;;;;10.32;8.18;;;;;;;22.47;73.32;100700.54;1738284;82;21022;-78
2021/09/12 08:32:32;;;;;;;9.10;7.95;;;;;;;22.60;73.00;100702.45;1738172;82;21002;-78
2021/09/12 08:34:58;;;;;;;9.98;8.80;;;;;;;22.64;72.67;100697.35;1738336;82;21508;-78
2021/09/12 08:37:24;;;;;;;10.20;8.60;;;;;;;22.60;72.37;100702.98;1761786;81;21432;-79
2021/09/12 08:39:50;;;;;;;9.85;7.75;;;;;;;22.67;72.17;100696.37;1738655;81;20903;-78
2021/09/12 08:42:17;;;;;;;9.48;7.55;;;;;;;22.73;71.87;100700.83;1738000;82;21027;-78
2021/09/12 08:44:50;;;;;;;11.97;8.43;;;;;;;22.63;71.43;100707.92;1737980;82;21002;-78
2021/09/12 08:47:16;;;;;;;9.40;8.45;;;;;;;22.66;71.27;100703.39;1738219;82;22646;-78
2021/09/12 08:49:43;;;;;;;8.33;7.37;;;;;;;22.87;71.12;100706.80;1738066;82;20998;-78
2021/09/12 08:52:10;;;;;;;10.03;8.88;;;;;;;22.88;70.63;100703.02;1738276;82;21026;-79
2021/09/12 08:54:36;;;;;;;11.20;8.40;;;;;;;22.73;70.33;100704.11;1767842;81;20987;-78
2021/09/12 08:57:02;;;;;;;9.73;8.73;;;;;;;22.61;70.22;100701.92;1768330;81;21413;-78
2021/09/12 08:59:33;;;;;;;10.08;8.63;;;;;;;22.37;69.90;100700.63;1768721;81;21911;-78
2021/09/12 09:02:01;;;;;;;10.28;9.15;;;;;;;22.26;69.77;100703.36;1768357;80;20975;-78
2021/09/12 09:04:29;;;;;;;11.20;9.98;;;;;;;22.13;69.59;100694.12;1768745;81;21042;-78
2021/09/12 09:07:10;;;;;;;12.05;8.85;;;;;;;22.12;69.55;100691.93;1751186;81;20971;-78
2021/09/12 09:09:45;;;;;;;10.65;9.00;;;;;;;22.18;69.47;100693.69;1738238;82;20982;-78
2021/09/12 09:12:35;;;;;;;10.98;9.55;;;;;;;22.26;69.47;100686.53;1738165;82;21806;-79
2021/09/12 09:15:16;;;;;;;12.45;8.58;;;;;;;22.44;69.38;100695.06;1737820;82;20970;-78
2021/09/12 09:17:49;;;;;;;9.28;8.40;;;;;;;22.78;69.38;100686.52;1737942;82;21530;-78
2021/09/12 09:20:33;;;;;;;9.60;7.90;;;;;;;23.11;69.15;100690.69;1736948;81;21019;-78
2021/09/12 09:23:03;;;;;;;11.63;9.53;;;;;;;23.15;68.79;100689.09;1737964;82;20987;-78
2021/09/12 09:25:30;;;;;;;8.95;7.80;;;;;;;22.97;68.58;100685.26;1721759;82;21834;-78
2021/09/12 09:28:06;;;;;;;9.63;7.55;;;;;;;22.85;68.42;100693.46;1737914;82;20991;-78
2021/09/12 09:30:54;;;;;;;7.90;6.33;;;;;;;22.80;68.34;100688.44;1738260;82;21022;-78
2021/09/12 09:33:27;;;;;;;7.97;5.70;;;;;;;22.66;68.02;100691.16;1737945;82;20934;-78
2021/09/12 09:36:04;;;;;;;8.63;6.58;;;;;;;22.57;67.78;100691.23;1747071;81;20991;-78
2021/09/12 09:38:35;;;;;;;6.78;5.65;;;;;;;22.50;67.60;100695.45;1763156;81;21980;-78
2021/09/12 09:41:13;;;;;;;9.30;6.15;;;;;;;22.45;67.47;100689.09;1737939;82;21022;-78
2021/09/12 09:43:48;;;;;;;10.65;6.78;;;;;;;22.40;67.29;100687.92;1737804;82;21026;-78
2021/09/12 09:46:35;;;;;;;8.75;6.70;;;;;;;22.36;67.07;100688.63;1738040;82;20999;-78
2021/09/12 09:49:23;;;;;;;9.13;6.28;;;;;;;22.32;67.00;100688.28;1737341;82;20908;-78
2021/09/12 09:51:58;;;;;;;12.20;7.28;;;;;;;22.34;66.90;100686.14;1738083;82;21824;-78
2021/09/12 09:54:27;;;;;;;10.88;7.00;;;;;;;22.28;66.72;100688.46;1757365;81;20915;-78
2021/09/12 09:56:54;;;;;;;10.30;7.40;;;;;;;22.30;66.70;100688.23;1741552;80;20994;-78
2021/09/12 09:59:22;;;;;;;10.98;7.00;;;;;;;22.34;66.78;100680.70;1738088;82;21007;-78
2021/09/12 10:01:50;;;;;;;9.53;7.77;;;;;;;22.52;66.74;100681.63;1738292;82;20950;-78
2021/09/12 10:04:23;;;;;;;8.25;7.45;;;;;;;22.78;66.70;100673.75;1738127;82;21771;-78
2021/09/12 10:06:49;;;;;;;9.20;7.25;;;;;;;23.00;66.53;100678.49;1737775;82;21003;-78
2021/09/12 10:09:17;;;;;;;9.98;8.50;;;;;;;23.10;66.37;100676.78;1738260;82;21323;-78
2021/09/12 10:11:47;;;;;;;13.05;9.60;;;;;;;23.17;66.23;100678.81;1764529;81;20882;-78
2021/09/12 10:14:17;;;;;;;12.43;8.00;;;;;;;23.18;66.11;100675.56;1767837;80;21063;-78
2021/09/12 10:16:43;;;;;;;8.58;7.55;;;;;;;23.08;66.07;100676.18;1768780;81;21936;-78
2021/09/12 10:19:09;;;;;;;10.28;8.23;;;;;;;22.97;65.96;100672.19;1768416;80;20991;-78
2021/09/12 10:21:35;;;;;;;10.00;7.50;;;;;;;22.84;65.90;100675.48;1762672;80;20943;-78
2021/09/12 10:24:05;;;;;;;8.75;7.37;;;;;;;22.78;65.75;100674.27;1727726;82;20888;-78
2021/09/12 10:26:35;;;;;;;10.10;7.42;;;;;;;22.70;65.57;100679.56;1725997;83;21070;-78
2021/09/12 10:29:02;;;;;;;7.42;6.70;;;;;;;22.57;65.47;100674.91;1704366;83;22474;-78
2021/09/12 10:31:34;;;;;;;8.90;6.87;;;;;;;22.52;65.40;100676.19;1726600;83;21039;-78
2021/09/12 10:34:08;;;;;;;7.75;5.40;;;;;;;22.48;65.28;100675.84;1726609;82;21507;-78
2021/09/12 10:36:35;;;;;;;9.23;6.75;;;;;;;22.63;65.27;100678.02;1726561;82;21436;-78
2021/09/12 10:39:32;;;;;;;7.00;5.83;;;;;;;22.67;64.88;100675.14;1740961;81;20959;-78
2021/09/12 10:42:14;;;;;;;9.18;6.37;;;;;;;22.80;64.70;100674.84;1730277;81;21848;-78
2021/09/12 10:44:40;;;;;;;9.68;7.55;;;;;;;22.92;64.34;100666.11;1739973;81;21011;-78
2021/09/12 10:47:08;;;;;;;7.35;6.03;;;;;;;23.02;64.24;100669.01;1735117;81;21047;-77
2021/09/12 10:49:34;;;;;;;7.15;6.28;;;;;;;23.06;64.04;100666.09;1749390;81;21023;-77
2021/09/12 10:52:00;;;;;;;7.30;6.50;;;;;;;23.01;63.80;100665.19;1734477;81;21455;-78
2021/09/12 10:54:26;;;;;;;7.78;7.00;;;;;;;22.98;63.63;100662.41;1682132;84;22457;-79
2021/09/12 10:57:08;;;;;;;7.97;6.80;;;;;;;22.89;63.36;100664.71;1682118;84;21061;-78
2021/09/12 10:59:34;;;;;;;12.00;7.55;;;;;;;22.83;63.31;100666.22;1689359;83;21030;-78
2021/09/12 11:02:00;;;;;;;9.43;7.85;;;;;;;22.88;63.24;100659.50;1741624;81;21085;-78
2021/09/12 11:04:32;;;;;;;9.53;7.30;;;;;;;22.80;63.17;100662.60;1731019;80;21056;-78
2021/09/12 11:07:04;;;;;;;8.50;7.62;;;;;;;22.76;63.17;100666.91;1737720;81;21780;-78
2021/09/12 11:09:32;;;;;;;8.85;7.55;;;;;;;22.83;63.23;100660.78;1742449;81;20996;-78
2021/09/12 11:12:01;;;;;;;8.38;7.40;;;;;;;22.81;63.19;100658.83;1744921;81;21468;-78